sensor_id;sensor_type;location;lat;lon;timestamp;P1;durP1;ratioP1;P2;durP2;ratioP2
45198;SDS011;30941;46.422;18.772;2023-07-31T00:01:25;5.30;;;3.65;;
45198;SDS011;30941;46.422;18.772;2023-07-31T00:03:51;6.95;;;4.05;;
45198;SDS011;30941;46.422;18.772;2023-07-31T00:06:16;5.53;;;4.60;;
45198;SDS011;30941;46.422;18.772;2023-07-31T00:08:41;6.47;;;4.38;;
45198;SDS011;30941;46.422;18.772;2023-07-31T00:11:07;5.65;;;3.47;;
45198;SDS011;30941;46.422;18.772;2023-07-31T00:13:32;6.20;;;4.22;;
45198;SDS011;30941;46.422;18.772;2023-07-31T00:15:58;6.13;;;4.22;;
45198;SDS011;30941;46.422;18.772;2023-07-31T00:18:24;5.18;;;3.97;;
45198;SDS011;30941;46.422;18.772;2023-07-31T00:20:50;7.55;;;4.05;;
45198;SDS011;30941;46.422;18.772;2023-07-31T00:23:15;6.65;;;3.88;;
45198;SDS011;30941;46.422;18.772;2023-07-31T00:25:41;5.65;;;3.65;;
45198;SDS011;30941;46.422;18.772;2023-07-31T00:28:06;5.40;;;3.92;;
45198;SDS011;30941;46.422;18.772;2023-07-31T00:30:32;5.18;;;3.60;;
45198;SDS011;30941;46.422;18.772;2023-07-31T00:32:57;5.43;;;4.22;;
45198;SDS011;30941;46.422;18.772;2023-07-31T00:35:23;7.30;;;4.40;;
45198;SDS011;30941;46.422;18.772;2023-07-31T00:37:48;4.93;;;4.32;;
45198;SDS011;30941;46.422;18.772;2023-07-31T00:40:13;5.57;;;3.97;;
45198;SDS011;30941;46.422;18.772;2023-07-31T00:42:39;6.30;;;4.00;;
45198;SDS011;30941;46.422;18.772;2023-07-31T00:45:05;6.50;;;3.78;;
45198;SDS011;30941;46.422;18.772;2023-07-31T00:47:30;5.00;;;3.92;;
45198;SDS011;30941;46.422;18.772;2023-07-31T00:49:56;4.80;;;3.78;;
45198;SDS011;30941;46.422;18.772;2023-07-31T00:52:21;9.90;;;4.10;;
45198;SDS011;30941;46.422;18.772;2023-07-31T00:54:46;5.75;;;4.40;;
45198;SDS011;30941;46.422;18.772;2023-07-31T00:57:13;6.60;;;4.05;;
45198;SDS011;30941;46.422;18.772;2023-07-31T00:59:39;5.47;;;3.50;;
45198;SDS011;30941;46.422;18.772;2023-07-31T01:02:04;9.73;;;4.20;;
45198;SDS011;30941;46.422;18.772;2023-07-31T01:04:30;6.68;;;3.97;;
45198;SDS011;30941;46.422;18.772;2023-07-31T01:06:56;6.63;;;3.78;;
45198;SDS011;30941;46.422;18.772;2023-07-31T01:12:06;4.85;;;3.60;;
45198;SDS011;30941;46.422;18.772;2023-07-31T01:14:32;3.95;;;3.20;;
45198;SDS011;30941;46.422;18.772;2023-07-31T01:16:58;4.90;;;3.58;;
45198;SDS011;30941;46.422;18.772;2023-07-31T01:19:23;5.30;;;3.90;;
45198;SDS011;30941;46.422;18.772;2023-07-31T01:22:12;4.28;;;3.60;;
45198;SDS011;30941;46.422;18.772;2023-07-31T01:27:31;5.63;;;3.50;;
45198;SDS011;30941;46.422;18.772;2023-07-31T01:30:04;5.00;;;3.75;;
45198;SDS011;30941;46.422;18.772;2023-07-31T01:32:35;5.88;;;3.47;;
45198;SDS011;30941;46.422;18.772;2023-07-31T01:35:01;4.97;;;3.65;;
45198;SDS011;30941;46.422;18.772;2023-07-31T01:37:28;5.72;;;3.50;;
45198;SDS011;30941;46.422;18.772;2023-07-31T01:39:54;4.00;;;3.15;;
45198;SDS011;30941;46.422;18.772;2023-07-31T01:42:20;4.82;;;3.50;;
45198;SDS011;30941;46.422;18.772;2023-07-31T01:44:45;5.80;;;3.78;;
45198;SDS011;30941;46.422;18.772;2023-07-31T01:47:10;7.75;;;4.05;;
45198;SDS011;30941;46.422;18.772;2023-07-31T01:49:36;5.90;;;3.85;;
45198;SDS011;30941;46.422;18.772;2023-07-31T01:52:01;4.25;;;3.25;;
45198;SDS011;30941;46.422;18.772;2023-07-31T01:54:26;8.40;;;4.40;;
45198;SDS011;30941;46.422;18.772;2023-07-31T01:56:52;5.13;;;3.60;;
45198;SDS011;30941;46.422;18.772;2023-07-31T01:59:17;4.47;;;3.50;;
45198;SDS011;30941;46.422;18.772;2023-07-31T02:01:42;5.30;;;3.78;;
45198;SDS011;30941;46.422;18.772;2023-07-31T02:04:08;6.20;;;3.97;;
45198;SDS011;30941;46.422;18.772;2023-07-31T02:06:33;5.60;;;3.70;;
45198;SDS011;30941;46.422;18.772;2023-07-31T02:08:58;4.85;;;3.20;;
45198;SDS011;30941;46.422;18.772;2023-07-31T02:11:24;5.40;;;3.30;;
45198;SDS011;30941;46.422;18.772;2023-07-31T02:13:49;4.60;;;3.40;;
45198;SDS011;30941;46.422;18.772;2023-07-31T02:16:14;4.88;;;3.50;;
45198;SDS011;30941;46.422;18.772;2023-07-31T02:18:40;7.80;;;3.60;;
45198;SDS011;30941;46.422;18.772;2023-07-31T02:21:05;5.05;;;3.47;;
45198;SDS011;30941;46.422;18.772;2023-07-31T02:23:31;5.72;;;3.90;;
45198;SDS011;30941;46.422;18.772;2023-07-31T02:25:56;6.05;;;3.45;;
45198;SDS011;30941;46.422;18.772;2023-07-31T02:28:21;4.82;;;3.25;;
45198;SDS011;30941;46.422;18.772;2023-07-31T02:30:47;4.70;;;3.35;;
45198;SDS011;30941;46.422;18.772;2023-07-31T02:33:12;7.28;;;3.67;;
45198;SDS011;30941;46.422;18.772;2023-07-31T02:35:37;3.95;;;3.05;;
45198;SDS011;30941;46.422;18.772;2023-07-31T02:38:03;5.88;;;3.38;;
45198;SDS011;30941;46.422;18.772;2023-07-31T02:40:28;5.30;;;3.25;;
45198;SDS011;30941;46.422;18.772;2023-07-31T02:42:54;4.75;;;3.22;;
45198;SDS011;30941;46.422;18.772;2023-07-31T02:45:19;5.50;;;3.15;;
45198;SDS011;30941;46.422;18.772;2023-07-31T02:47:44;5.20;;;3.25;;
45198;SDS011;30941;46.422;18.772;2023-07-31T02:50:10;5.00;;;3.00;;
45198;SDS011;30941;46.422;18.772;2023-07-31T02:52:35;6.07;;;3.20;;
45198;SDS011;30941;46.422;18.772;2023-07-31T02:55:00;5.50;;;3.33;;
45198;SDS011;30941;46.422;18.772;2023-07-31T02:57:26;5.00;;;3.50;;
45198;SDS011;30941;46.422;18.772;2023-07-31T02:59:51;5.22;;;3.30;;
45198;SDS011;30941;46.422;18.772;2023-07-31T03:02:17;5.47;;;3.20;;
45198;SDS011;30941;46.422;18.772;2023-07-31T03:04:42;6.22;;;3.70;;
45198;SDS011;30941;46.422;18.772;2023-07-31T03:07:07;5.57;;;3.10;;
45198;SDS011;30941;46.422;18.772;2023-07-31T03:09:33;5.65;;;3.35;;
45198;SDS011;30941;46.422;18.772;2023-07-31T03:11:58;4.72;;;3.63;;
45198;SDS011;30941;46.422;18.772;2023-07-31T03:14:23;4.68;;;3.50;;
45198;SDS011;30941;46.422;18.772;2023-07-31T03:16:51;5.45;;;3.22;;
45198;SDS011;30941;46.422;18.772;2023-07-31T03:19:16;4.60;;;3.33;;
45198;SDS011;30941;46.422;18.772;2023-07-31T03:21:42;5.57;;;3.17;;
45198;SDS011;30941;46.422;18.772;2023-07-31T03:24:07;4.07;;;3.15;;
45198;SDS011;30941;46.422;18.772;2023-07-31T03:26:32;4.32;;;2.60;;
45198;SDS011;30941;46.422;18.772;2023-07-31T03:28:58;5.10;;;3.03;;
45198;SDS011;30941;46.422;18.772;2023-07-31T03:31:23;4.95;;;3.08;;
45198;SDS011;30941;46.422;18.772;2023-07-31T03:33:49;4.55;;;2.67;;
45198;SDS011;30941;46.422;18.772;2023-07-31T03:36:14;4.18;;;2.88;;
45198;SDS011;30941;46.422;18.772;2023-07-31T03:38:39;3.72;;;2.92;;
45198;SDS011;30941;46.422;18.772;2023-07-31T03:41:05;4.03;;;3.00;;
45198;SDS011;30941;46.422;18.772;2023-07-31T03:43:31;4.63;;;2.80;;
45198;SDS011;30941;46.422;18.772;2023-07-31T03:45:58;4.13;;;2.95;;
45198;SDS011;30941;46.422;18.772;2023-07-31T03:48:24;3.47;;;2.70;;
45198;SDS011;30941;46.422;18.772;2023-07-31T03:50:50;3.85;;;2.75;;
45198;SDS011;30941;46.422;18.772;2023-07-31T03:53:15;4.82;;;2.83;;
45198;SDS011;30941;46.422;18.772;2023-07-31T03:55:40;3.80;;;2.60;;
45198;SDS011;30941;46.422;18.772;2023-07-31T03:58:06;4.03;;;2.78;;
45198;SDS011;30941;46.422;18.772;2023-07-31T04:00:31;4.70;;;2.92;;
45198;SDS011;30941;46.422;18.772;2023-07-31T04:02:56;3.72;;;2.90;;
45198;SDS011;30941;46.422;18.772;2023-07-31T04:05:22;4.45;;;3.13;;
45198;SDS011;30941;46.422;18.772;2023-07-31T04:07:47;4.50;;;3.13;;
45198;SDS011;30941;46.422;18.772;2023-07-31T04:10:12;3.92;;;2.92;;
45198;SDS011;30941;46.422;18.772;2023-07-31T04:12:38;4.30;;;3.00;;
45198;SDS011;30941;46.422;18.772;2023-07-31T04:15:03;5.03;;;2.88;;
45198;SDS011;30941;46.422;18.772;2023-07-31T04:17:29;4.53;;;2.97;;
45198;SDS011;30941;46.422;18.772;2023-07-31T04:19:54;3.83;;;2.83;;
45198;SDS011;30941;46.422;18.772;2023-07-31T04:22:20;4.00;;;2.90;;
45198;SDS011;30941;46.422;18.772;2023-07-31T04:24:45;3.95;;;2.90;;
45198;SDS011;30941;46.422;18.772;2023-07-31T04:27:11;6.47;;;3.80;;
45198;SDS011;30941;46.422;18.772;2023-07-31T04:29:36;4.07;;;3.17;;
45198;SDS011;30941;46.422;18.772;2023-07-31T04:32:02;4.07;;;2.75;;
45198;SDS011;30941;46.422;18.772;2023-07-31T04:34:27;5.35;;;3.08;;
45198;SDS011;30941;46.422;18.772;2023-07-31T04:36:53;5.15;;;2.65;;
45198;SDS011;30941;46.422;18.772;2023-07-31T04:39:18;4.10;;;3.03;;
45198;SDS011;30941;46.422;18.772;2023-07-31T04:41:43;4.72;;;3.22;;
45198;SDS011;30941;46.422;18.772;2023-07-31T04:44:09;4.40;;;3.38;;
45198;SDS011;30941;46.422;18.772;2023-07-31T04:46:36;6.15;;;3.00;;
45198;SDS011;30941;46.422;18.772;2023-07-31T04:49:02;4.43;;;3.17;;
45198;SDS011;30941;46.422;18.772;2023-07-31T04:51:28;7.35;;;3.55;;
45198;SDS011;30941;46.422;18.772;2023-07-31T04:53:53;6.70;;;3.40;;
45198;SDS011;30941;46.422;18.772;2023-07-31T04:56:18;5.55;;;3.22;;
45198;SDS011;30941;46.422;18.772;2023-07-31T04:58:44;5.22;;;3.20;;
45198;SDS011;30941;46.422;18.772;2023-07-31T05:01:09;4.60;;;2.80;;
45198;SDS011;30941;46.422;18.772;2023-07-31T05:03:34;5.40;;;3.35;;
45198;SDS011;30941;46.422;18.772;2023-07-31T05:06:00;4.68;;;3.05;;
45198;SDS011;30941;46.422;18.772;2023-07-31T05:08:25;7.95;;;3.33;;
45198;SDS011;30941;46.422;18.772;2023-07-31T05:10:51;5.25;;;3.13;;
45198;SDS011;30941;46.422;18.772;2023-07-31T05:13:16;6.95;;;3.42;;
45198;SDS011;30941;46.422;18.772;2023-07-31T05:15:41;5.30;;;3.13;;
45198;SDS011;30941;46.422;18.772;2023-07-31T05:18:07;5.45;;;2.95;;
45198;SDS011;30941;46.422;18.772;2023-07-31T05:20:32;5.72;;;3.15;;
45198;SDS011;30941;46.422;18.772;2023-07-31T05:22:58;5.63;;;3.45;;
45198;SDS011;30941;46.422;18.772;2023-07-31T05:25:23;4.00;;;2.78;;
45198;SDS011;30941;46.422;18.772;2023-07-31T05:27:48;5.43;;;2.67;;
45198;SDS011;30941;46.422;18.772;2023-07-31T05:30:14;3.92;;;2.85;;
45198;SDS011;30941;46.422;18.772;2023-07-31T05:32:39;6.25;;;3.00;;
45198;SDS011;30941;46.422;18.772;2023-07-31T05:35:05;4.47;;;3.03;;
45198;SDS011;30941;46.422;18.772;2023-07-31T05:37:30;3.47;;;2.67;;
45198;SDS011;30941;46.422;18.772;2023-07-31T05:39:56;5.25;;;2.97;;
45198;SDS011;30941;46.422;18.772;2023-07-31T05:42:21;6.85;;;3.08;;
45198;SDS011;30941;46.422;18.772;2023-07-31T05:44:47;4.47;;;3.05;;
45198;SDS011;30941;46.422;18.772;2023-07-31T05:47:12;5.78;;;2.70;;
45198;SDS011;30941;46.422;18.772;2023-07-31T05:49:38;3.85;;;2.60;;
45198;SDS011;30941;46.422;18.772;2023-07-31T05:52:03;4.28;;;3.00;;
45198;SDS011;30941;46.422;18.772;2023-07-31T05:54:29;4.43;;;2.58;;
45198;SDS011;30941;46.422;18.772;2023-07-31T05:56:54;4.50;;;3.13;;
45198;SDS011;30941;46.422;18.772;2023-07-31T05:59:20;4.30;;;2.80;;
45198;SDS011;30941;46.422;18.772;2023-07-31T06:01:45;3.70;;;2.80;;
45198;SDS011;30941;46.422;18.772;2023-07-31T06:04:10;4.13;;;2.42;;
45198;SDS011;30941;46.422;18.772;2023-07-31T06:06:36;5.07;;;2.55;;
45198;SDS011;30941;46.422;18.772;2023-07-31T06:09:01;4.30;;;3.00;;
45198;SDS011;30941;46.422;18.772;2023-07-31T06:11:28;3.67;;;2.53;;
45198;SDS011;30941;46.422;18.772;2023-07-31T06:13:54;5.53;;;2.60;;
45198;SDS011;30941;46.422;18.772;2023-07-31T06:16:19;3.90;;;2.78;;
45198;SDS011;30941;46.422;18.772;2023-07-31T06:18:46;4.03;;;2.63;;
45198;SDS011;30941;46.422;18.772;2023-07-31T06:21:11;4.72;;;3.08;;
45198;SDS011;30941;46.422;18.772;2023-07-31T06:23:37;4.13;;;2.25;;
45198;SDS011;30941;46.422;18.772;2023-07-31T06:26:02;3.58;;;2.50;;
45198;SDS011;30941;46.422;18.772;2023-07-31T06:28:28;4.20;;;2.78;;
45198;SDS011;30941;46.422;18.772;2023-07-31T06:30:57;4.78;;;2.38;;
45198;SDS011;30941;46.422;18.772;2023-07-31T06:33:23;6.15;;;2.63;;
45198;SDS011;30941;46.422;18.772;2023-07-31T06:35:49;5.43;;;2.55;;
45198;SDS011;30941;46.422;18.772;2023-07-31T06:38:14;5.03;;;2.70;;
45198;SDS011;30941;46.422;18.772;2023-07-31T06:40:39;4.53;;;2.63;;
45198;SDS011;30941;46.422;18.772;2023-07-31T06:43:05;3.92;;;2.28;;
45198;SDS011;30941;46.422;18.772;2023-07-31T06:45:36;6.88;;;2.60;;
45198;SDS011;30941;46.422;18.772;2023-07-31T06:48:03;3.33;;;2.25;;
45198;SDS011;30941;46.422;18.772;2023-07-31T06:50:29;4.22;;;2.75;;
45198;SDS011;30941;46.422;18.772;2023-07-31T06:52:57;3.60;;;2.47;;
45198;SDS011;30941;46.422;18.772;2023-07-31T06:55:23;3.83;;;2.65;;
45198;SDS011;30941;46.422;18.772;2023-07-31T06:57:50;3.70;;;2.17;;
45198;SDS011;30941;46.422;18.772;2023-07-31T07:00:16;4.40;;;2.60;;
45198;SDS011;30941;46.422;18.772;2023-07-31T07:02:42;5.95;;;2.20;;
45198;SDS011;30941;46.422;18.772;2023-07-31T07:05:08;3.03;;;2.20;;
45198;SDS011;30941;46.422;18.772;2023-07-31T07:07:34;7.22;;;2.20;;
45198;SDS011;30941;46.422;18.772;2023-07-31T07:09:59;4.10;;;1.77;;
45198;SDS011;30941;46.422;18.772;2023-07-31T07:12:25;5.78;;;2.13;;
45198;SDS011;30941;46.422;18.772;2023-07-31T07:14:54;3.15;;;2.28;;
45198;SDS011;30941;46.422;18.772;2023-07-31T07:17:19;5.03;;;2.45;;
45198;SDS011;30941;46.422;18.772;2023-07-31T07:19:45;4.03;;;1.80;;
45198;SDS011;30941;46.422;18.772;2023-07-31T07:22:13;4.55;;;2.22;;
45198;SDS011;30941;46.422;18.772;2023-07-31T07:24:39;3.30;;;1.90;;
45198;SDS011;30941;46.422;18.772;2023-07-31T07:27:04;4.38;;;2.28;;
45198;SDS011;30941;46.422;18.772;2023-07-31T07:29:30;3.65;;;2.00;;
45198;SDS011;30941;46.422;18.772;2023-07-31T07:31:55;5.97;;;2.00;;
45198;SDS011;30941;46.422;18.772;2023-07-31T07:34:22;3.50;;;2.25;;
45198;SDS011;30941;46.422;18.772;2023-07-31T07:36:49;3.80;;;2.10;;
45198;SDS011;30941;46.422;18.772;2023-07-31T07:39:14;3.33;;;1.92;;
45198;SDS011;30941;46.422;18.772;2023-07-31T07:41:40;3.78;;;2.03;;
45198;SDS011;30941;46.422;18.772;2023-07-31T07:44:05;3.72;;;1.92;;
45198;SDS011;30941;46.422;18.772;2023-07-31T07:46:31;4.22;;;1.90;;
45198;SDS011;30941;46.422;18.772;2023-07-31T07:48:56;4.25;;;2.05;;
45198;SDS011;30941;46.422;18.772;2023-07-31T07:51:22;2.83;;;2.08;;
45198;SDS011;30941;46.422;18.772;2023-07-31T07:53:47;1.92;;;1.73;;
45198;SDS011;30941;46.422;18.772;2023-07-31T07:56:12;8.57;;;2.45;;
45198;SDS011;30941;46.422;18.772;2023-07-31T07:58:38;6.43;;;2.30;;
45198;SDS011;30941;46.422;18.772;2023-07-31T08:01:03;4.85;;;2.60;;
45198;SDS011;30941;46.422;18.772;2023-07-31T08:03:28;6.03;;;2.10;;
45198;SDS011;30941;46.422;18.772;2023-07-31T08:05:57;5.10;;;2.13;;
45198;SDS011;30941;46.422;18.772;2023-07-31T08:08:23;3.15;;;1.80;;
45198;SDS011;30941;46.422;18.772;2023-07-31T08:10:49;5.95;;;1.98;;
45198;SDS011;30941;46.422;18.772;2023-07-31T08:13:14;8.40;;;3.45;;
45198;SDS011;30941;46.422;18.772;2023-07-31T08:15:42;3.40;;;1.90;;
45198;SDS011;30941;46.422;18.772;2023-07-31T08:18:08;5.28;;;2.00;;
45198;SDS011;30941;46.422;18.772;2023-07-31T08:20:34;4.60;;;2.00;;
45198;SDS011;30941;46.422;18.772;2023-07-31T08:22:59;3.38;;;1.70;;
45198;SDS011;30941;46.422;18.772;2023-07-31T08:25:25;5.20;;;1.77;;
45198;SDS011;30941;46.422;18.772;2023-07-31T08:27:50;3.78;;;2.13;;
45198;SDS011;30941;46.422;18.772;2023-07-31T08:30:17;4.25;;;1.90;;
45198;SDS011;30941;46.422;18.772;2023-07-31T08:32:43;4.32;;;1.70;;
45198;SDS011;30941;46.422;18.772;2023-07-31T08:35:09;2.60;;;1.67;;
45198;SDS011;30941;46.422;18.772;2023-07-31T08:37:34;3.13;;;1.90;;
45198;SDS011;30941;46.422;18.772;2023-07-31T08:40:00;4.07;;;2.05;;
45198;SDS011;30941;46.422;18.772;2023-07-31T08:42:25;4.78;;;1.83;;
45198;SDS011;30941;46.422;18.772;2023-07-31T08:44:50;6.20;;;2.35;;
45198;SDS011;30941;46.422;18.772;2023-07-31T08:47:17;4.88;;;1.88;;
45198;SDS011;30941;46.422;18.772;2023-07-31T08:49:44;4.57;;;2.60;;
45198;SDS011;30941;46.422;18.772;2023-07-31T08:52:11;3.65;;;1.92;;
45198;SDS011;30941;46.422;18.772;2023-07-31T08:54:36;4.07;;;2.15;;
45198;SDS011;30941;46.422;18.772;2023-07-31T08:57:02;5.40;;;2.00;;
45198;SDS011;30941;46.422;18.772;2023-07-31T08:59:29;3.17;;;2.15;;
45198;SDS011;30941;46.422;18.772;2023-07-31T09:01:56;4.57;;;2.22;;
45198;SDS011;30941;46.422;18.772;2023-07-31T09:04:23;3.22;;;1.80;;
45198;SDS011;30941;46.422;18.772;2023-07-31T09:06:49;4.47;;;2.00;;
45198;SDS011;30941;46.422;18.772;2023-07-31T09:09:15;4.63;;;2.00;;
45198;SDS011;30941;46.422;18.772;2023-07-31T09:11:41;3.47;;;1.85;;
45198;SDS011;30941;46.422;18.772;2023-07-31T09:14:07;4.47;;;2.17;;
45198;SDS011;30941;46.422;18.772;2023-07-31T09:16:33;3.58;;;1.50;;
45198;SDS011;30941;46.422;18.772;2023-07-31T09:18:59;3.63;;;2.00;;
45198;SDS011;30941;46.422;18.772;2023-07-31T09:21:26;3.30;;;2.10;;
45198;SDS011;30941;46.422;18.772;2023-07-31T09:23:53;3.90;;;2.20;;
45198;SDS011;30941;46.422;18.772;2023-07-31T09:26:37;4.72;;;2.10;;
45198;SDS011;30941;46.422;18.772;2023-07-31T09:29:06;5.32;;;1.90;;
45198;SDS011;30941;46.422;18.772;2023-07-31T09:34:06;5.07;;;1.85;;
45198;SDS011;30941;46.422;18.772;2023-07-31T09:36:31;4.05;;;1.80;;
45198;SDS011;30941;46.422;18.772;2023-07-31T09:39:01;3.10;;;1.73;;
45198;SDS011;30941;46.422;18.772;2023-07-31T09:41:27;3.97;;;2.15;;
45198;SDS011;30941;46.422;18.772;2023-07-31T09:43:53;4.28;;;1.80;;
45198;SDS011;30941;46.422;18.772;2023-07-31T09:46:20;5.88;;;2.25;;
45198;SDS011;30941;46.422;18.772;2023-07-31T09:48:46;3.40;;;1.70;;
45198;SDS011;30941;46.422;18.772;2023-07-31T09:51:11;4.75;;;2.17;;
45198;SDS011;30941;46.422;18.772;2023-07-31T09:53:37;6.60;;;2.13;;
45198;SDS011;30941;46.422;18.772;2023-07-31T09:56:02;3.33;;;1.77;;
45198;SDS011;30941;46.422;18.772;2023-07-31T09:58:29;2.42;;;1.70;;
45198;SDS011;30941;46.422;18.772;2023-07-31T10:00:55;3.42;;;1.85;;
45198;SDS011;30941;46.422;18.772;2023-07-31T10:03:22;4.97;;;1.80;;
45198;SDS011;30941;46.422;18.772;2023-07-31T10:05:52;3.20;;;1.55;;
45198;SDS011;30941;46.422;18.772;2023-07-31T10:08:19;5.70;;;2.08;;
45198;SDS011;30941;46.422;18.772;2023-07-31T10:10:46;3.20;;;1.85;;
45198;SDS011;30941;46.422;18.772;2023-07-31T10:13:12;6.95;;;1.80;;
45198;SDS011;30941;46.422;18.772;2023-07-31T10:15:38;4.78;;;1.80;;
45198;SDS011;30941;46.422;18.772;2023-07-31T10:18:05;3.72;;;1.90;;
45198;SDS011;30941;46.422;18.772;2023-07-31T10:20:31;4.15;;;2.05;;
45198;SDS011;30941;46.422;18.772;2023-07-31T10:22:57;3.25;;;1.88;;
45198;SDS011;30941;46.422;18.772;2023-07-31T10:25:23;4.55;;;1.98;;
45198;SDS011;30941;46.422;18.772;2023-07-31T10:27:48;4.72;;;1.95;;
45198;SDS011;30941;46.422;18.772;2023-07-31T10:30:15;4.43;;;1.98;;
45198;SDS011;30941;46.422;18.772;2023-07-31T10:32:41;3.92;;;2.00;;
45198;SDS011;30941;46.422;18.772;2023-07-31T10:35:09;10.23;;;2.20;;
45198;SDS011;30941;46.422;18.772;2023-07-31T10:37:41;5.85;;;2.00;;
45198;SDS011;30941;46.422;18.772;2023-07-31T10:40:13;3.17;;;1.70;;
45198;SDS011;30941;46.422;18.772;2023-07-31T10:42:45;3.67;;;2.10;;
45198;SDS011;30941;46.422;18.772;2023-07-31T10:45:23;3.58;;;1.80;;
45198;SDS011;30941;46.422;18.772;2023-07-31T10:48:00;4.22;;;1.90;;
45198;SDS011;30941;46.422;18.772;2023-07-31T10:50:26;8.35;;;2.10;;
45198;SDS011;30941;46.422;18.772;2023-07-31T10:52:52;2.70;;;1.73;;
45198;SDS011;30941;46.422;18.772;2023-07-31T10:55:25;3.58;;;1.70;;
45198;SDS011;30941;46.422;18.772;2023-07-31T10:57:53;3.50;;;1.88;;
45198;SDS011;30941;46.422;18.772;2023-07-31T11:00:29;3.92;;;2.47;;
45198;SDS011;30941;46.422;18.772;2023-07-31T11:06:00;3.78;;;1.90;;
45198;SDS011;30941;46.422;18.772;2023-07-31T11:08:26;6.05;;;1.98;;
45198;SDS011;30941;46.422;18.772;2023-07-31T11:13:34;5.32;;;2.22;;
45198;SDS011;30941;46.422;18.772;2023-07-31T11:16:05;3.22;;;1.80;;
45198;SDS011;30941;46.422;18.772;2023-07-31T11:18:30;5.85;;;2.20;;
45198;SDS011;30941;46.422;18.772;2023-07-31T11:20:56;4.82;;;1.95;;
45198;SDS011;30941;46.422;18.772;2023-07-31T11:23:21;5.13;;;2.15;;
45198;SDS011;30941;46.422;18.772;2023-07-31T11:25:47;4.57;;;2.10;;
45198;SDS011;30941;46.422;18.772;2023-07-31T11:28:13;3.20;;;2.00;;
45198;SDS011;30941;46.422;18.772;2023-07-31T11:30:40;4.53;;;1.92;;
45198;SDS011;30941;46.422;18.772;2023-07-31T11:33:07;2.97;;;1.50;;
45198;SDS011;30941;46.422;18.772;2023-07-31T11:35:34;3.80;;;1.83;;
45198;SDS011;30941;46.422;18.772;2023-07-31T11:38:01;4.65;;;1.95;;
45198;SDS011;30941;46.422;18.772;2023-07-31T11:40:27;4.13;;;1.90;;
45198;SDS011;30941;46.422;18.772;2023-07-31T11:42:57;4.47;;;2.13;;
45198;SDS011;30941;46.422;18.772;2023-07-31T11:45:26;4.13;;;2.00;;
45198;SDS011;30941;46.422;18.772;2023-07-31T11:47:56;3.25;;;1.70;;
45198;SDS011;30941;46.422;18.772;2023-07-31T11:50:22;3.97;;;1.80;;
45198;SDS011;30941;46.422;18.772;2023-07-31T11:52:49;4.20;;;1.80;;
45198;SDS011;30941;46.422;18.772;2023-07-31T11:55:17;2.75;;;1.70;;
45198;SDS011;30941;46.422;18.772;2023-07-31T11:57:42;3.72;;;2.13;;
45198;SDS011;30941;46.422;18.772;2023-07-31T12:00:09;3.78;;;1.52;;
45198;SDS011;30941;46.422;18.772;2023-07-31T12:02:36;4.93;;;2.10;;
45198;SDS011;30941;46.422;18.772;2023-07-31T12:05:02;6.38;;;2.13;;
45198;SDS011;30941;46.422;18.772;2023-07-31T12:07:27;3.35;;;1.70;;
45198;SDS011;30941;46.422;18.772;2023-07-31T12:09:53;4.50;;;1.88;;
45198;SDS011;30941;46.422;18.772;2023-07-31T12:12:19;4.63;;;1.70;;
45198;SDS011;30941;46.422;18.772;2023-07-31T12:14:46;4.95;;;1.80;;
45198;SDS011;30941;46.422;18.772;2023-07-31T12:17:11;4.50;;;2.30;;
45198;SDS011;30941;46.422;18.772;2023-07-31T12:19:36;6.53;;;2.00;;
45198;SDS011;30941;46.422;18.772;2023-07-31T12:22:10;4.55;;;2.00;;
45198;SDS011;30941;46.422;18.772;2023-07-31T12:24:36;4.05;;;1.90;;
45198;SDS011;30941;46.422;18.772;2023-07-31T12:27:08;6.53;;;2.05;;
45198;SDS011;30941;46.422;18.772;2023-07-31T12:29:40;3.45;;;2.05;;
45198;SDS011;30941;46.422;18.772;2023-07-31T12:32:22;3.58;;;1.80;;
45198;SDS011;30941;46.422;18.772;2023-07-31T12:34:53;6.43;;;2.22;;
45198;SDS011;30941;46.422;18.772;2023-07-31T12:37:20;5.60;;;2.00;;
45198;SDS011;30941;46.422;18.772;2023-07-31T12:39:46;3.78;;;1.83;;
45198;SDS011;30941;46.422;18.772;2023-07-31T12:42:11;5.05;;;1.88;;
45198;SDS011;30941;46.422;18.772;2023-07-31T12:44:36;3.45;;;1.70;;
45198;SDS011;30941;46.422;18.772;2023-07-31T12:47:02;3.30;;;2.15;;
45198;SDS011;30941;46.422;18.772;2023-07-31T12:49:29;3.55;;;1.92;;
45198;SDS011;30941;46.422;18.772;2023-07-31T12:51:54;4.35;;;2.03;;
45198;SDS011;30941;46.422;18.772;2023-07-31T12:54:19;2.85;;;2.00;;
45198;SDS011;30941;46.422;18.772;2023-07-31T12:56:45;8.57;;;2.13;;
45198;SDS011;30941;46.422;18.772;2023-07-31T12:59:10;6.25;;;2.10;;
45198;SDS011;30941;46.422;18.772;2023-07-31T13:01:35;3.78;;;1.77;;
45198;SDS011;30941;46.422;18.772;2023-07-31T13:04:01;5.03;;;2.08;;
45198;SDS011;30941;46.422;18.772;2023-07-31T13:06:26;3.70;;;2.15;;
45198;SDS011;30941;46.422;18.772;2023-07-31T13:08:52;4.03;;;1.95;;
45198;SDS011;30941;46.422;18.772;2023-07-31T13:11:17;4.50;;;1.73;;
45198;SDS011;30941;46.422;18.772;2023-07-31T13:13:42;4.72;;;2.08;;
45198;SDS011;30941;46.422;18.772;2023-07-31T13:16:08;4.38;;;1.88;;
45198;SDS011;30941;46.422;18.772;2023-07-31T13:18:33;4.80;;;2.00;;
45198;SDS011;30941;46.422;18.772;2023-07-31T13:20:58;2.17;;;1.60;;
45198;SDS011;30941;46.422;18.772;2023-07-31T13:23:24;4.40;;;2.05;;
45198;SDS011;30941;46.422;18.772;2023-07-31T13:25:49;3.75;;;1.83;;
45198;SDS011;30941;46.422;18.772;2023-07-31T13:28:14;3.83;;;1.95;;
45198;SDS011;30941;46.422;18.772;2023-07-31T13:30:40;5.32;;;2.00;;
45198;SDS011;30941;46.422;18.772;2023-07-31T13:33:05;5.38;;;2.35;;
45198;SDS011;30941;46.422;18.772;2023-07-31T13:35:31;5.20;;;2.08;;
45198;SDS011;30941;46.422;18.772;2023-07-31T13:37:56;4.60;;;2.08;;
45198;SDS011;30941;46.422;18.772;2023-07-31T13:40:22;5.25;;;2.13;;
45198;SDS011;30941;46.422;18.772;2023-07-31T13:42:47;3.50;;;1.73;;
45198;SDS011;30941;46.422;18.772;2023-07-31T13:45:13;3.45;;;1.90;;
45198;SDS011;30941;46.422;18.772;2023-07-31T13:47:38;4.28;;;2.20;;
45198;SDS011;30941;46.422;18.772;2023-07-31T13:50:04;3.15;;;1.80;;
45198;SDS011;30941;46.422;18.772;2023-07-31T13:52:29;4.25;;;1.80;;
45198;SDS011;30941;46.422;18.772;2023-07-31T13:54:55;4.07;;;1.90;;
45198;SDS011;30941;46.422;18.772;2023-07-31T13:57:20;3.72;;;1.90;;
45198;SDS011;30941;46.422;18.772;2023-07-31T13:59:46;4.50;;;1.90;;
45198;SDS011;30941;46.422;18.772;2023-07-31T14:02:11;8.10;;;2.28;;
45198;SDS011;30941;46.422;18.772;2023-07-31T14:04:36;5.10;;;2.28;;
45198;SDS011;30941;46.422;18.772;2023-07-31T14:07:02;5.75;;;1.95;;
45198;SDS011;30941;46.422;18.772;2023-07-31T14:09:28;7.28;;;1.90;;
45198;SDS011;30941;46.422;18.772;2023-07-31T14:11:53;3.05;;;1.80;;
45198;SDS011;30941;46.422;18.772;2023-07-31T14:14:19;5.40;;;1.90;;
45198;SDS011;30941;46.422;18.772;2023-07-31T14:16:44;8.88;;;2.05;;
45198;SDS011;30941;46.422;18.772;2023-07-31T14:19:10;4.05;;;2.10;;
45198;SDS011;30941;46.422;18.772;2023-07-31T14:21:35;3.72;;;1.90;;
45198;SDS011;30941;46.422;18.772;2023-07-31T14:24:01;3.33;;;2.00;;
45198;SDS011;30941;46.422;18.772;2023-07-31T14:26:26;4.03;;;2.08;;
45198;SDS011;30941;46.422;18.772;2023-07-31T14:28:51;7.47;;;2.63;;
45198;SDS011;30941;46.422;18.772;2023-07-31T14:31:17;6.10;;;2.78;;
45198;SDS011;30941;46.422;18.772;2023-07-31T14:33:42;7.20;;;2.47;;
45198;SDS011;30941;46.422;18.772;2023-07-31T14:36:08;3.55;;;2.03;;
45198;SDS011;30941;46.422;18.772;2023-07-31T14:38:33;4.18;;;1.70;;
45198;SDS011;30941;46.422;18.772;2023-07-31T14:40:58;4.70;;;2.10;;